createdAt,value
2018-04-18T00:00:53.411Z,20.53
2018-04-18T00:03:22.254Z,20.57
2018-04-18T00:05:51.060Z,18.97
2018-04-18T00:08:19.895Z,16.77
2018-04-18T00:10:48.820Z,21.50
2018-04-18T00:13:17.651Z,24.30
2018-04-18T00:15:46.479Z,20.10
2018-04-18T00:18:15.113Z,19.83
2018-04-18T00:20:42.647Z,18.30
2018-04-18T00:23:10.122Z,17.17
2018-04-18T00:25:39.252Z,19.37
2018-04-18T00:28:08.060Z,19.47
2018-04-18T00:30:36.905Z,20.77
2018-04-18T00:33:05.728Z,19.57
2018-04-18T00:35:34.571Z,21.03
2018-04-18T00:38:03.458Z,20.43
2018-04-18T00:40:32.607Z,23.37
2018-04-18T00:43:01.754Z,21.17
2018-04-18T00:45:30.574Z,20.53
2018-04-18T00:47:59.424Z,19.77
2018-04-18T00:50:28.275Z,20.03
2018-04-18T00:52:57.210Z,19.80
2018-04-18T00:55:26.044Z,18.80
2018-04-18T00:57:54.895Z,20.70
2018-04-18T01:00:23.755Z,21.03
2018-04-18T01:02:52.895Z,20.80
2018-04-18T01:05:21.703Z,23.63
2018-04-18T01:07:50.543Z,22.53
2018-04-18T01:10:19.153Z,23.67
2018-04-18T01:12:47.986Z,45.93
2018-04-18T01:15:16.848Z,22.73
2018-04-18T01:17:45.683Z,20.97
2018-04-18T01:20:14.516Z,21.67
2018-04-18T01:22:43.331Z,20.13
2018-04-18T01:25:12.160Z,22.50
2018-04-18T01:27:40.968Z,22.83
2018-04-18T01:30:09.905Z,18.70
2018-04-18T01:32:38.699Z,24.63
2018-04-18T01:35:07.373Z,20.70
2018-04-18T01:37:38.467Z,18.87
2018-04-18T01:40:06.728Z,20.50
2018-04-18T01:42:34.178Z,21.87
2018-04-18T01:45:03.027Z,22.70
2018-04-18T01:47:32.135Z,21.03
2018-04-18T01:50:00.974Z,18.43
2018-04-18T01:52:30.083Z,23.93
2018-04-18T01:54:58.936Z,19.27
2018-04-18T01:57:27.770Z,18.80
2018-04-18T01:59:56.586Z,22.93
2018-04-18T02:02:25.427Z,21.60
2018-04-18T02:04:54.447Z,20.00
2018-04-18T02:07:23.322Z,21.40
2018-04-18T02:09:52.442Z,20.27
2018-04-18T02:12:21.380Z,21.07
2018-04-18T02:14:50.195Z,20.95
2018-04-18T02:17:19.027Z,22.13
2018-04-18T02:19:47.897Z,19.67
2018-04-18T02:22:16.811Z,23.30
2018-04-18T02:24:44.287Z,21.47
2018-04-18T02:27:11.770Z,22.63
2018-04-18T02:29:39.238Z,23.00
2018-04-18T02:32:07.497Z,23.67
2018-04-18T02:34:34.963Z,24.15
2018-04-18T02:37:03.793Z,23.90
2018-04-18T02:39:32.424Z,22.60
2018-04-18T02:42:01.337Z,21.50
2018-04-18T02:44:30.159Z,23.23
2018-04-18T02:46:58.975Z,24.80
2018-04-18T02:49:27.822Z,21.70
2018-04-18T02:51:56.637Z,22.35
2018-04-18T02:54:25.467Z,24.12
2018-04-18T02:56:54.280Z,21.70
2018-04-18T02:59:23.130Z,23.30
2018-04-18T03:01:51.953Z,21.92
2018-04-18T03:04:20.794Z,24.02
2018-04-18T03:06:49.866Z,20.88
2018-04-18T03:09:19.015Z,21.52
2018-04-18T03:11:47.839Z,23.98
2018-04-18T03:14:17.039Z,23.58
2018-04-18T03:16:46.175Z,24.77
2018-04-18T03:19:15.074Z,25.62
2018-04-18T03:21:43.999Z,26.87
2018-04-18T03:24:12.885Z,24.70
2018-04-18T03:26:41.777Z,28.10
2018-04-18T03:29:10.607Z,25.55
2018-04-18T03:31:39.563Z,26.83
2018-04-18T03:34:08.378Z,29.17
2018-04-18T03:36:37.210Z,27.33
2018-04-18T03:39:06.029Z,26.95
2018-04-18T03:41:34.862Z,30.17
2018-04-18T03:44:03.704Z,29.90
2018-04-18T03:46:32.524Z,30.65
2018-04-18T03:49:01.439Z,30.77
2018-04-18T03:51:30.267Z,28.30
2018-04-18T03:53:59.179Z,26.10
2018-04-18T03:56:28.067Z,31.27
2018-04-18T03:58:56.885Z,28.70
2018-04-18T04:01:25.731Z,32.17
2018-04-18T04:03:54.560Z,37.33
2018-04-18T04:06:23.423Z,29.55
2018-04-18T04:08:52.020Z,32.08
2018-04-18T04:11:21.123Z,34.63
2018-04-18T04:13:49.947Z,30.17
2018-04-18T04:16:24.727Z,29.75
2018-04-18T04:18:59.722Z,33.70
2018-04-18T04:21:34.412Z,29.98
2018-04-18T04:24:09.212Z,27.95
2018-04-18T04:26:38.099Z,36.63
2018-04-18T04:29:07.043Z,35.45
2018-04-18T04:31:36.158Z,31.37
2018-04-18T04:34:04.977Z,31.40
2018-04-18T04:36:33.787Z,31.95
2018-04-18T04:39:02.632Z,41.97
2018-04-18T04:41:31.439Z,50.12
2018-04-18T04:44:00.288Z,42.27
2018-04-18T04:46:29.103Z,35.50
2018-04-18T04:48:58.252Z,32.70
2018-04-18T04:51:27.083Z,35.83
2018-04-18T04:53:55.950Z,29.42
2018-04-18T04:56:24.833Z,28.30
2018-04-18T04:58:53.597Z,30.50
2018-04-18T05:01:22.436Z,37.45
2018-04-18T05:03:51.568Z,34.40
2018-04-18T05:06:20.387Z,30.50
2018-04-18T05:08:49.207Z,31.85
2018-04-18T05:11:18.036Z,35.88
2018-04-18T05:13:46.864Z,34.13
2018-04-18T05:16:15.695Z,31.55
2018-04-18T05:18:44.521Z,32.20
2018-04-18T05:21:13.404Z,33.97
2018-04-18T05:23:42.214Z,35.60
2018-04-18T05:26:11.040Z,31.83
2018-04-18T05:28:39.850Z,33.17
2018-04-18T05:31:08.682Z,40.63
2018-04-18T05:33:37.495Z,32.37
2018-04-18T05:36:06.357Z,35.67
2018-04-18T05:38:33.826Z,30.07
2018-04-18T05:41:01.304Z,31.63
2018-04-18T05:43:28.822Z,30.60
2018-04-18T05:45:57.035Z,31.03
2018-04-18T05:48:24.526Z,31.23
2018-04-18T05:50:52.031Z,33.00
2018-04-18T05:53:19.524Z,31.13
2018-04-18T05:55:46.999Z,25.20
2018-04-18T05:58:14.480Z,27.47
2018-04-18T06:00:42.728Z,29.53
2018-04-18T06:03:10.227Z,28.27
2018-04-18T06:05:38.467Z,29.93
2018-04-18T06:08:07.791Z,30.20
2018-04-18T06:10:36.690Z,27.33
2018-04-18T06:13:05.527Z,28.93
2018-04-18T06:15:32.992Z,29.47
2018-04-18T06:18:00.456Z,34.33
2018-04-18T06:20:29.602Z,29.40
2018-04-18T06:22:57.852Z,27.50
2018-04-18T06:25:25.329Z,34.10
2018-04-18T06:27:53.586Z,28.60
2018-04-18T06:30:21.077Z,27.30
2018-04-18T06:32:48.552Z,30.97
2018-04-18T06:35:16.047Z,30.60
2018-04-18T06:37:43.516Z,24.50
2018-04-18T06:40:11.004Z,28.80
2018-04-18T06:42:38.488Z,26.37
2018-04-18T06:45:05.988Z,29.33
2018-04-18T06:47:33.468Z,27.70
2018-04-18T06:50:01.730Z,26.90
2018-04-18T07:05:29.272Z,27.77
2018-04-18T07:07:56.729Z,34.30
2018-04-18T07:10:24.192Z,23.87
2018-04-18T07:12:52.479Z,24.73
2018-04-18T07:15:19.940Z,28.87
2018-04-18T07:17:48.210Z,26.37
2018-04-18T07:20:15.663Z,27.10
2018-04-18T07:22:43.240Z,23.63
2018-04-18T07:25:11.469Z,27.07
2018-04-18T07:27:38.963Z,28.80
2018-04-18T07:30:07.275Z,23.43
2018-04-18T07:32:34.751Z,26.33
2018-04-18T07:35:02.223Z,23.80
2018-04-18T07:37:29.704Z,23.17
2018-04-18T07:39:57.178Z,22.13
2018-04-18T07:42:25.408Z,25.47
2018-04-18T07:44:52.913Z,22.30
2018-04-18T07:47:21.140Z,22.47
2018-04-18T07:49:48.644Z,23.07
2018-04-18T07:52:16.875Z,26.03
2018-04-18T07:54:44.360Z,24.73
2018-04-18T07:57:11.822Z,19.77
2018-04-18T07:59:39.312Z,23.73
2018-04-18T08:02:06.833Z,19.77
2018-04-18T08:04:34.325Z,21.53
2018-04-18T08:07:01.819Z,20.70
2018-04-18T08:09:29.304Z,23.17
2018-04-18T08:11:56.841Z,21.67
2018-04-18T08:14:24.302Z,19.50
2018-04-18T08:16:51.797Z,18.90
2018-04-18T08:19:19.257Z,20.07
2018-04-18T08:21:47.894Z,19.10
2018-04-18T08:24:15.347Z,19.83
2018-04-18T08:26:42.856Z,17.00
2018-04-18T08:29:10.317Z,16.17
2018-04-18T08:31:38.671Z,15.20
2018-04-18T08:34:06.909Z,22.43
2018-04-18T08:36:34.392Z,18.50
2018-04-18T08:39:01.861Z,19.57
2018-04-18T08:41:29.351Z,19.07
2018-04-18T08:43:57.581Z,15.13
2018-04-18T08:46:25.064Z,15.67
2018-04-18T08:48:52.537Z,17.87
2018-04-18T08:51:20.036Z,17.20
2018-04-18T08:53:47.514Z,18.13
2018-04-18T08:56:14.963Z,21.47
2018-04-18T08:58:42.458Z,18.07
2018-04-18T09:01:10.003Z,19.10
2018-04-18T09:03:37.496Z,18.73
2018-04-18T09:06:04.964Z,21.77
2018-04-18T09:08:32.445Z,19.93
2018-04-18T09:10:59.900Z,18.83
2018-04-18T09:13:27.396Z,20.60
2018-04-18T09:15:55.343Z,19.37
2018-04-18T09:18:22.832Z,19.93
2018-04-18T09:20:50.288Z,16.50
2018-04-18T09:23:18.531Z,16.53
2018-04-18T09:25:45.990Z,17.53
2018-04-18T09:28:13.580Z,16.70
2018-04-18T09:30:41.079Z,17.40
2018-04-18T09:33:08.532Z,15.83
2018-04-18T09:35:37.382Z,17.50
2018-04-18T09:38:06.236Z,15.67
2018-04-18T09:40:33.705Z,17.83
2018-04-18T09:43:01.194Z,15.50
2018-04-18T09:45:29.465Z,15.63
2018-04-18T09:47:56.938Z,17.33
2018-04-18T09:50:25.180Z,15.80
2018-04-18T09:52:52.642Z,16.33
2018-04-18T09:55:20.136Z,14.63
2018-04-18T09:57:48.761Z,14.60
2018-04-18T10:00:16.254Z,15.83
2018-04-18T10:02:43.708Z,13.80
2018-04-18T10:05:11.200Z,13.30
2018-04-18T10:07:40.371Z,13.47
2018-04-18T10:10:09.291Z,12.83
2018-04-18T10:12:38.098Z,16.20
2018-04-18T10:15:06.942Z,13.30
2018-04-18T10:17:35.767Z,14.20
2018-04-18T10:20:04.999Z,15.07
2018-04-18T10:22:33.828Z,14.03
2018-04-18T10:25:02.061Z,14.43
2018-04-18T10:27:29.553Z,14.27
2018-04-18T10:29:57.003Z,20.23
2018-04-18T10:32:24.510Z,13.70
2018-04-18T10:34:54.256Z,14.27
2018-04-18T10:37:23.100Z,12.53
2018-04-18T10:39:51.916Z,12.23
2018-04-18T10:42:19.382Z,13.50
2018-04-18T10:44:48.407Z,13.40
2018-04-18T10:47:17.211Z,12.43
2018-04-18T10:49:46.055Z,15.30
2018-04-18T10:52:14.863Z,16.23
2018-04-18T10:54:43.695Z,13.83
2018-04-18T10:57:11.178Z,14.83
2018-04-18T10:59:38.654Z,13.23
2018-04-18T11:02:07.470Z,12.77
2018-04-18T11:04:35.020Z,16.27
2018-04-18T11:07:02.588Z,13.13
2018-04-18T11:09:31.717Z,12.03
2018-04-18T11:12:00.527Z,12.20
2018-04-18T11:14:29.363Z,12.17
2018-04-18T11:16:58.187Z,12.97
2018-04-18T11:19:27.022Z,11.27
2018-04-18T11:21:55.835Z,11.30
2018-04-18T11:24:24.667Z,11.13
2018-04-18T11:26:53.510Z,15.83
2018-04-18T11:29:22.339Z,13.30
2018-04-18T11:31:50.941Z,9.73
2018-04-18T11:34:18.385Z,9.30
2018-04-18T11:36:45.876Z,9.27
2018-04-18T11:39:13.352Z,10.17
2018-04-18T11:41:42.171Z,10.50
2018-04-18T11:44:10.982Z,11.20
2018-04-18T11:46:38.460Z,9.97
2018-04-18T11:49:07.603Z,8.80
2018-04-18T11:51:36.742Z,11.27
2018-04-18T11:54:05.839Z,9.20
2018-04-18T11:56:34.660Z,9.90
2018-04-18T11:59:03.483Z,9.10
2018-04-18T12:01:32.287Z,15.20
2018-04-18T12:04:01.119Z,11.27
2018-04-18T12:06:29.952Z,13.10
2018-04-18T12:08:58.767Z,18.23
2018-04-18T12:11:27.641Z,11.17
2018-04-18T12:13:56.439Z,10.50
2018-04-18T12:16:25.249Z,9.60
2018-04-18T12:18:54.080Z,9.57
2018-04-18T12:21:22.701Z,8.50
2018-04-18T12:23:51.559Z,10.63
2018-04-18T12:26:19.034Z,9.27
2018-04-18T12:28:47.961Z,11.80
2018-04-18T12:31:16.677Z,10.17
2018-04-18T12:33:45.505Z,8.10
2018-04-18T12:36:14.299Z,8.63
2018-04-18T12:38:43.144Z,9.73
2018-04-18T12:41:11.957Z,9.77
2018-04-18T12:43:40.810Z,13.10
2018-04-18T12:46:09.645Z,10.53
2018-04-18T12:48:38.456Z,12.23
2018-04-18T12:51:07.311Z,10.23
2018-04-18T12:53:36.107Z,9.63
2018-04-18T12:56:04.948Z,15.60
2018-04-18T12:58:33.756Z,10.57
2018-04-18T13:01:02.608Z,11.40
2018-04-18T13:03:31.453Z,10.13
2018-04-18T13:06:00.281Z,14.90
2018-04-18T13:08:29.120Z,10.07
2018-04-18T13:10:57.959Z,9.60
2018-04-18T13:13:26.761Z,10.83
2018-04-18T13:15:55.656Z,12.67
2018-04-18T13:18:24.496Z,12.87
2018-04-18T13:20:53.314Z,9.43
2018-04-18T13:23:22.142Z,9.23
2018-04-18T13:25:51.063Z,10.70
2018-04-18T13:28:19.919Z,12.57
2018-04-18T13:30:48.720Z,12.83
2018-04-18T13:33:17.563Z,11.00
2018-04-18T13:35:46.385Z,12.03
2018-04-18T13:38:15.191Z,10.87
2018-04-18T13:40:44.018Z,11.20
2018-04-18T13:43:12.822Z,13.40
2018-04-18T13:45:41.663Z,11.07
2018-04-18T13:48:10.496Z,29.47
2018-04-18T13:50:39.323Z,17.90
2018-04-18T13:53:08.155Z,11.23
2018-04-18T13:55:37.004Z,10.00
2018-04-18T13:58:05.823Z,12.70
2018-04-18T14:00:34.678Z,11.03
2018-04-18T14:03:03.478Z,13.90
2018-04-18T14:05:32.333Z,13.80
2018-04-18T14:08:01.172Z,13.90
2018-04-18T14:10:29.996Z,12.93
2018-04-18T14:12:58.839Z,13.03
2018-04-18T14:15:27.651Z,16.50
2018-04-18T14:17:56.495Z,14.80
2018-04-18T14:20:25.310Z,15.57
2018-04-18T14:22:54.169Z,15.73
2018-04-18T14:25:21.633Z,13.10
2018-04-18T14:27:49.130Z,13.70
2018-04-18T14:30:16.601Z,13.23
2018-04-18T14:32:44.118Z,11.87
2018-04-18T14:35:11.573Z,13.67
2018-04-18T14:37:39.058Z,13.63
2018-04-18T14:40:06.520Z,26.00
2018-04-18T14:42:34.016Z,16.07
2018-04-18T14:45:01.492Z,14.47
2018-04-18T14:47:28.968Z,10.63
2018-04-18T14:49:57.808Z,12.20
2018-04-18T14:52:26.682Z,13.33
2018-04-18T14:54:55.517Z,21.03
2018-04-18T14:57:24.341Z,13.53
2018-04-18T14:59:53.262Z,14.60
2018-04-18T15:02:22.068Z,12.70
2018-04-18T15:04:50.914Z,13.17
2018-04-18T15:07:19.730Z,81.13
2018-04-18T15:09:48.578Z,15.13
2018-04-18T15:12:17.399Z,13.43
2018-04-18T15:14:46.243Z,9.27
2018-04-18T15:17:15.047Z,10.07
2018-04-18T15:19:44.259Z,14.07
2018-04-18T15:22:13.075Z,11.23
2018-04-18T15:24:41.950Z,8.40
2018-04-18T15:27:10.772Z,8.93
2018-04-18T15:29:39.616Z,8.83
2018-04-18T15:32:08.466Z,9.87
2018-04-18T15:34:37.386Z,7.93
2018-04-18T15:37:06.241Z,8.90
2018-04-18T15:39:34.824Z,7.20
2018-04-18T15:42:03.455Z,5.67
2018-04-18T15:44:32.149Z,9.17
2018-04-18T15:46:59.662Z,11.83
2018-04-18T15:49:27.121Z,9.70
2018-04-18T15:51:54.612Z,10.13
2018-04-18T15:54:22.072Z,8.70
2018-04-18T15:56:49.520Z,7.30
2018-04-18T15:59:17.018Z,7.90
2018-04-18T16:01:45.630Z,15.67
2018-04-18T16:04:13.115Z,6.90
2018-04-18T16:06:40.605Z,6.77
2018-04-18T16:09:08.079Z,8.07
2018-04-18T16:11:36.319Z,7.80
2018-04-18T16:14:03.843Z,9.90
2018-04-18T16:16:31.331Z,13.70
2018-04-18T16:18:58.816Z,11.17
2018-04-18T16:21:26.322Z,9.00
2018-04-18T16:23:53.809Z,18.33
2018-04-18T16:26:21.282Z,9.63
2018-04-18T16:28:48.750Z,8.33
2018-04-18T16:31:16.296Z,9.10
2018-04-18T16:33:43.832Z,9.13
2018-04-18T16:36:11.320Z,10.23
2018-04-18T16:38:38.793Z,10.57
2018-04-18T16:41:07.052Z,10.90
2018-04-18T16:43:34.518Z,14.47
2018-04-18T16:46:02.067Z,13.50
2018-04-18T16:48:29.533Z,15.87
2018-04-18T16:50:57.824Z,14.03
2018-04-18T16:53:26.052Z,15.83
2018-04-18T16:55:53.571Z,17.23
2018-04-18T16:58:21.811Z,12.87
2018-04-18T17:00:49.291Z,12.53
2018-04-18T17:03:16.778Z,16.40
2018-04-18T17:05:44.244Z,11.33
2018-04-18T17:08:11.747Z,12.67
2018-04-18T17:10:39.216Z,13.47
2018-04-18T17:13:07.475Z,11.40
2018-04-18T17:15:34.948Z,16.53
2018-04-18T17:18:02.445Z,11.87
2018-04-18T17:20:29.908Z,16.67
2018-04-18T17:22:58.776Z,22.53
2018-04-18T17:25:27.592Z,13.83
2018-04-18T17:27:56.411Z,14.93
2018-04-18T17:30:25.535Z,15.40
2018-04-18T17:32:54.676Z,15.00
2018-04-18T17:35:23.528Z,17.60
2018-04-18T17:37:52.633Z,14.93
2018-04-18T17:40:21.769Z,16.97
2018-04-18T17:42:50.588Z,16.40
2018-04-18T17:45:19.763Z,14.60
2018-04-18T17:47:48.619Z,17.90
2018-04-18T17:50:17.763Z,17.77
2018-04-18T17:52:46.827Z,24.63
2018-04-18T17:55:15.879Z,30.63
2018-04-18T17:57:44.988Z,20.47
2018-04-18T18:00:14.209Z,21.93
2018-04-18T18:02:43.306Z,12.27
2018-04-18T18:05:12.485Z,17.93
2018-04-18T18:07:41.628Z,14.30
2018-04-18T18:10:10.731Z,16.17
2018-04-18T18:12:39.594Z,22.90
2018-04-18T18:15:08.413Z,15.00
2018-04-18T18:17:37.341Z,24.17
2018-04-18T18:20:06.153Z,18.57
2018-04-18T18:22:35.014Z,14.53
2018-04-18T18:25:03.838Z,13.87
2018-04-18T18:27:32.703Z,18.63
2018-04-18T18:30:01.611Z,24.50
2018-04-18T18:32:30.473Z,14.50
2018-04-18T18:34:59.288Z,16.70
2018-04-18T18:37:28.182Z,15.33
2018-04-18T18:39:57.014Z,12.97
2018-04-18T18:42:25.867Z,14.03
2018-04-18T18:44:54.694Z,11.83
2018-04-18T18:47:23.637Z,12.63
2018-04-18T18:49:52.541Z,16.37
2018-04-18T18:52:21.316Z,13.03
2018-04-18T18:54:50.190Z,12.40
2018-04-18T18:57:19.016Z,14.23
2018-04-18T18:59:47.894Z,16.53
2018-04-18T19:02:16.707Z,11.87
2018-04-18T19:04:45.560Z,17.93
2018-04-18T19:07:14.410Z,20.33
2018-04-18T19:09:43.311Z,16.03
2018-04-18T19:12:12.113Z,18.37
2018-04-18T19:14:41.015Z,13.83
2018-04-18T19:17:09.828Z,20.00
2018-04-18T19:19:38.703Z,23.53
2018-04-18T19:22:07.528Z,16.10
2018-04-18T19:24:36.478Z,25.27
2018-04-18T19:27:05.324Z,18.50
2018-04-18T19:29:34.147Z,37.27
2018-04-18T19:32:03.016Z,16.90
2018-04-18T19:34:31.848Z,56.33
2018-04-18T19:37:00.692Z,37.93
2018-04-18T19:39:29.532Z,30.67
2018-04-18T19:41:58.706Z,21.63
2018-04-18T19:44:27.803Z,19.77
2018-04-18T19:46:56.649Z,17.10
2018-04-18T19:49:25.494Z,18.00
2018-04-18T19:51:54.357Z,16.90
2018-04-18T19:54:23.176Z,20.40
2018-04-18T19:56:52.084Z,18.57
2018-04-18T19:59:20.893Z,15.30
2018-04-18T20:01:50.672Z,16.27
2018-04-18T20:04:19.567Z,17.27
2018-04-18T20:06:48.406Z,17.63
2018-04-18T20:09:17.268Z,17.70
2018-04-18T20:11:46.086Z,22.13
2018-04-18T20:14:14.920Z,16.17
2018-04-18T20:16:43.794Z,14.60
2018-04-18T20:19:12.617Z,15.27
2018-04-18T20:21:41.424Z,18.60
2018-04-18T20:24:10.295Z,15.30
2018-04-18T20:26:39.428Z,13.93
2018-04-18T20:29:08.578Z,18.03
2018-04-18T20:31:37.405Z,13.97
2018-04-18T20:34:06.257Z,20.60
2018-04-18T20:36:37.068Z,14.67
2018-04-18T20:39:06.190Z,14.97
2018-04-18T20:41:35.336Z,14.70
2018-04-18T20:44:04.208Z,13.40
2018-04-18T20:46:33.150Z,17.07
2018-04-18T20:49:02.265Z,16.37
2018-04-18T20:51:31.392Z,13.17
2018-04-18T20:54:00.226Z,15.00
2018-04-18T20:56:29.391Z,18.87
2018-04-18T20:58:58.212Z,13.87
2018-04-18T21:01:27.072Z,17.77
2018-04-18T21:03:55.918Z,15.50
2018-04-18T21:06:24.777Z,15.30
2018-04-18T21:08:53.888Z,13.63
2018-04-18T21:11:22.989Z,15.43
2018-04-18T21:13:52.144Z,14.60
2018-04-18T21:16:21.101Z,17.13
2018-04-18T21:18:49.977Z,16.30
2018-04-18T21:21:18.887Z,15.07
2018-04-18T21:23:47.732Z,14.20
2018-04-18T21:26:16.548Z,14.33
2018-04-18T21:28:45.391Z,14.87
2018-04-18T21:31:14.307Z,19.37
2018-04-18T21:33:43.121Z,12.63
2018-04-18T21:36:11.995Z,15.87
2018-04-18T21:38:40.841Z,12.50
2018-04-18T21:41:09.693Z,12.57
2018-04-18T21:43:38.525Z,15.07
2018-04-18T21:46:07.340Z,18.63
2018-04-18T21:48:36.168Z,15.20
2018-04-18T21:51:05.002Z,14.57
2018-04-18T21:53:33.858Z,16.53
2018-04-18T21:56:02.832Z,13.23
2018-04-18T21:58:31.962Z,18.43
2018-04-18T22:01:01.049Z,15.73
2018-04-18T22:03:30.149Z,19.00
2018-04-18T22:05:59.450Z,16.50
2018-04-18T22:08:28.852Z,20.60
2018-04-18T22:10:57.801Z,15.30
2018-04-18T22:13:26.908Z,18.00
2018-04-18T22:15:56.062Z,14.63
2018-04-18T22:18:25.528Z,17.93
2018-04-18T22:20:55.685Z,15.87
2018-04-18T22:23:24.987Z,20.70
2018-04-18T22:25:54.207Z,19.80
2018-04-18T22:28:23.459Z,17.23
2018-04-18T22:30:52.283Z,17.23
2018-04-18T22:33:21.110Z,16.87
2018-04-18T22:35:49.913Z,15.67
2018-04-18T22:38:18.794Z,17.40
2018-04-18T22:40:47.663Z,16.77
2018-04-18T22:43:16.492Z,19.47
2018-04-18T22:45:45.300Z,20.73
2018-04-18T22:48:14.135Z,15.93
2018-04-18T22:50:42.957Z,21.03
2018-04-18T22:53:11.787Z,17.60
2018-04-18T22:55:40.595Z,21.37
2018-04-18T22:58:09.444Z,15.47
2018-04-18T23:00:38.529Z,15.83
2018-04-18T23:03:07.448Z,22.17
2018-04-18T23:05:36.270Z,21.40
2018-04-18T23:08:05.415Z,18.33
2018-04-18T23:10:34.522Z,20.13
2018-04-18T23:13:03.655Z,15.93
2018-04-18T23:15:32.524Z,16.27
2018-04-18T23:18:01.347Z,21.00
2018-04-18T23:20:30.180Z,17.73
2018-04-18T23:22:59.038Z,23.00
2018-04-18T23:25:28.160Z,19.50
2018-04-18T23:27:57.288Z,19.10
2018-04-18T23:30:26.416Z,20.67
2018-04-18T23:32:55.240Z,17.90
2018-04-18T23:35:24.069Z,17.40
2018-04-18T23:37:52.867Z,19.37
2018-04-18T23:40:21.699Z,20.60
2018-04-18T23:42:50.499Z,17.33
2018-04-18T23:45:19.347Z,20.20
2018-04-18T23:47:48.149Z,18.70
2018-04-18T23:50:16.979Z,18.67
2018-04-18T23:52:45.809Z,22.83
2018-04-18T23:55:14.707Z,20.93
2018-04-18T23:57:43.611Z,21.90
